sensor_id;sensor_type;location;lat;lon;timestamp;P1;durP1;ratioP1;P2;durP2;ratioP2
840;SDS011;406;48.566;13.450;2024-01-16T00:00:58;7.38;;;4.40;;
840;SDS011;406;48.566;13.450;2024-01-16T00:03:25;5.22;;;4.60;;
840;SDS011;406;48.566;13.450;2024-01-16T00:05:52;12.23;;;4.95;;
840;SDS011;406;48.566;13.450;2024-01-16T00:08:18;7.10;;;4.97;;
840;SDS011;406;48.566;13.450;2024-01-16T00:10:45;6.32;;;5.40;;
840;SDS011;406;48.566;13.450;2024-01-16T00:13:12;7.10;;;5.32;;
840;SDS011;406;48.566;13.450;2024-01-16T00:15:39;5.90;;;5.10;;
840;SDS011;406;48.566;13.450;2024-01-16T00:18:07;5.22;;;4.72;;
840;SDS011;406;48.566;13.450;2024-01-16T00:20:35;6.85;;;4.80;;
840;SDS011;406;48.566;13.450;2024-01-16T00:23:01;5.60;;;4.50;;
840;SDS011;406;48.566;13.450;2024-01-16T00:25:28;5.50;;;4.97;;
840;SDS011;406;48.566;13.450;2024-01-16T00:27:54;5.68;;;4.20;;
840;SDS011;406;48.566;13.450;2024-01-16T00:30:21;6.88;;;4.40;;
840;SDS011;406;48.566;13.450;2024-01-16T00:32:47;5.80;;;5.20;;
840;SDS011;406;48.566;13.450;2024-01-16T00:35:14;5.57;;;4.95;;
840;SDS011;406;48.566;13.450;2024-01-16T00:37:41;5.93;;;4.75;;
840;SDS011;406;48.566;13.450;2024-01-16T00:40:07;4.80;;;4.30;;
840;SDS011;406;48.566;13.450;2024-01-16T00:42:35;5.82;;;4.32;;
840;SDS011;406;48.566;13.450;2024-01-16T00:45:01;6.50;;;4.97;;
840;SDS011;406;48.566;13.450;2024-01-16T00:47:28;6.97;;;4.85;;
840;SDS011;406;48.566;13.450;2024-01-16T00:49:54;6.63;;;4.75;;
840;SDS011;406;48.566;13.450;2024-01-16T00:52:21;5.07;;;4.45;;
840;SDS011;406;48.566;13.450;2024-01-16T00:54:47;5.68;;;4.50;;
840;SDS011;406;48.566;13.450;2024-01-16T00:57:15;4.65;;;3.95;;
840;SDS011;406;48.566;13.450;2024-01-16T00:59:48;6.22;;;5.05;;
840;SDS011;406;48.566;13.450;2024-01-16T01:05:03;6.57;;;4.70;;
840;SDS011;406;48.566;13.450;2024-01-16T01:07:30;6.05;;;5.05;;
840;SDS011;406;48.566;13.450;2024-01-16T01:09:57;4.00;;;3.58;;
840;SDS011;406;48.566;13.450;2024-01-16T01:12:24;4.70;;;3.88;;
840;SDS011;406;48.566;13.450;2024-01-16T01:14:50;5.72;;;4.10;;
840;SDS011;406;48.566;13.450;2024-01-16T01:17:17;4.93;;;4.10;;
840;SDS011;406;48.566;13.450;2024-01-16T01:19:43;6.63;;;4.10;;
840;SDS011;406;48.566;13.450;2024-01-16T01:22:10;6.05;;;4.10;;
840;SDS011;406;48.566;13.450;2024-01-16T01:24:36;5.55;;;3.60;;
840;SDS011;406;48.566;13.450;2024-01-16T01:27:03;5.47;;;3.90;;
840;SDS011;406;48.566;13.450;2024-01-16T01:29:30;6.15;;;4.43;;
840;SDS011;406;48.566;13.450;2024-01-16T01:31:57;5.20;;;4.03;;
840;SDS011;406;48.566;13.450;2024-01-16T01:34:23;7.97;;;5.32;;
840;SDS011;406;48.566;13.450;2024-01-16T01:36:50;4.40;;;3.97;;
840;SDS011;406;48.566;13.450;2024-01-16T01:39:16;7.03;;;5.07;;
840;SDS011;406;48.566;13.450;2024-01-16T01:41:43;5.03;;;3.70;;
840;SDS011;406;48.566;13.450;2024-01-16T01:44:09;6.10;;;4.47;;
840;SDS011;406;48.566;13.450;2024-01-16T01:46:42;5.57;;;4.70;;
840;SDS011;406;48.566;13.450;2024-01-16T01:49:09;4.63;;;3.55;;
840;SDS011;406;48.566;13.450;2024-01-16T01:51:38;4.13;;;3.20;;
840;SDS011;406;48.566;13.450;2024-01-16T01:54:04;5.45;;;3.67;;
840;SDS011;406;48.566;13.450;2024-01-16T01:56:31;4.15;;;3.75;;
840;SDS011;406;48.566;13.450;2024-01-16T01:58:57;4.20;;;3.47;;
840;SDS011;406;48.566;13.450;2024-01-16T02:01:28;7.65;;;3.65;;
840;SDS011;406;48.566;13.450;2024-01-16T02:03:55;5.03;;;3.45;;
840;SDS011;406;48.566;13.450;2024-01-16T02:06:24;5.80;;;3.88;;
840;SDS011;406;48.566;13.450;2024-01-16T02:08:51;4.93;;;3.35;;
840;SDS011;406;48.566;13.450;2024-01-16T02:11:17;4.20;;;3.30;;
840;SDS011;406;48.566;13.450;2024-01-16T02:13:44;4.10;;;3.30;;
840;SDS011;406;48.566;13.450;2024-01-16T02:16:17;4.18;;;3.20;;
840;SDS011;406;48.566;13.450;2024-01-16T02:18:45;4.30;;;3.90;;
840;SDS011;406;48.566;13.450;2024-01-16T02:21:12;4.85;;;3.35;;
840;SDS011;406;48.566;13.450;2024-01-16T02:23:43;8.68;;;4.53;;
840;SDS011;406;48.566;13.450;2024-01-16T02:26:09;5.88;;;3.53;;
840;SDS011;406;48.566;13.450;2024-01-16T02:28:36;6.03;;;3.10;;
840;SDS011;406;48.566;13.450;2024-01-16T02:31:03;6.63;;;3.70;;
840;SDS011;406;48.566;13.450;2024-01-16T02:33:29;3.30;;;3.00;;
840;SDS011;406;48.566;13.450;2024-01-16T02:35:56;3.83;;;3.45;;
840;SDS011;406;48.566;13.450;2024-01-16T02:38:22;5.80;;;3.03;;
840;SDS011;406;48.566;13.450;2024-01-16T02:40:49;3.65;;;2.90;;
840;SDS011;406;48.566;13.450;2024-01-16T02:43:15;4.40;;;3.40;;
840;SDS011;406;48.566;13.450;2024-01-16T02:45:42;6.72;;;2.92;;
840;SDS011;406;48.566;13.450;2024-01-16T02:48:09;3.15;;;2.53;;
840;SDS011;406;48.566;13.450;2024-01-16T02:50:35;4.70;;;3.50;;
840;SDS011;406;48.566;13.450;2024-01-16T02:53:02;6.60;;;3.00;;
840;SDS011;406;48.566;13.450;2024-01-16T02:55:29;5.50;;;2.90;;
840;SDS011;406;48.566;13.450;2024-01-16T02:57:55;4.53;;;3.50;;
840;SDS011;406;48.566;13.450;2024-01-16T03:00:22;2.88;;;2.45;;
840;SDS011;406;48.566;13.450;2024-01-16T03:02:49;3.10;;;2.80;;
840;SDS011;406;48.566;13.450;2024-01-16T03:05:15;4.20;;;3.15;;
840;SDS011;406;48.566;13.450;2024-01-16T03:07:42;4.65;;;3.00;;
840;SDS011;406;48.566;13.450;2024-01-16T03:10:10;4.30;;;2.75;;
840;SDS011;406;48.566;13.450;2024-01-16T03:12:36;4.05;;;2.95;;
840;SDS011;406;48.566;13.450;2024-01-16T03:15:03;5.95;;;2.95;;
840;SDS011;406;48.566;13.450;2024-01-16T03:17:30;5.32;;;2.72;;
840;SDS011;406;48.566;13.450;2024-01-16T03:19:57;3.95;;;3.05;;
840;SDS011;406;48.566;13.450;2024-01-16T03:22:23;3.75;;;2.80;;
840;SDS011;406;48.566;13.450;2024-01-16T03:24:50;6.70;;;3.75;;
840;SDS011;406;48.566;13.450;2024-01-16T03:27:17;4.40;;;2.92;;
840;SDS011;406;48.566;13.450;2024-01-16T03:29:43;3.70;;;3.20;;
840;SDS011;406;48.566;13.450;2024-01-16T03:32:10;3.38;;;2.72;;
840;SDS011;406;48.566;13.450;2024-01-16T03:34:37;3.40;;;3.08;;
840;SDS011;406;48.566;13.450;2024-01-16T03:37:03;5.13;;;2.85;;
840;SDS011;406;48.566;13.450;2024-01-16T03:39:30;4.45;;;2.95;;
840;SDS011;406;48.566;13.450;2024-01-16T03:41:56;5.57;;;3.28;;
840;SDS011;406;48.566;13.450;2024-01-16T03:44:23;5.25;;;2.83;;
840;SDS011;406;48.566;13.450;2024-01-16T03:46:50;4.32;;;2.78;;
840;SDS011;406;48.566;13.450;2024-01-16T03:49:16;3.40;;;3.08;;
840;SDS011;406;48.566;13.450;2024-01-16T03:51:43;5.10;;;3.33;;
840;SDS011;406;48.566;13.450;2024-01-16T03:54:12;4.90;;;3.45;;
840;SDS011;406;48.566;13.450;2024-01-16T03:56:42;4.15;;;2.55;;
840;SDS011;406;48.566;13.450;2024-01-16T03:59:08;6.10;;;3.20;;
840;SDS011;406;48.566;13.450;2024-01-16T04:01:35;4.90;;;3.35;;
840;SDS011;406;48.566;13.450;2024-01-16T04:04:04;5.40;;;2.55;;
840;SDS011;406;48.566;13.450;2024-01-16T04:06:34;3.05;;;2.38;;
840;SDS011;406;48.566;13.450;2024-01-16T04:09:01;3.85;;;2.70;;
840;SDS011;406;48.566;13.450;2024-01-16T04:11:27;2.90;;;2.30;;
840;SDS011;406;48.566;13.450;2024-01-16T04:13:54;3.90;;;2.90;;
840;SDS011;406;48.566;13.450;2024-01-16T04:16:20;3.33;;;2.88;;
840;SDS011;406;48.566;13.450;2024-01-16T04:18:47;5.20;;;2.53;;
840;SDS011;406;48.566;13.450;2024-01-16T04:21:14;11.45;;;3.22;;
840;SDS011;406;48.566;13.450;2024-01-16T04:23:44;6.03;;;2.63;;
840;SDS011;406;48.566;13.450;2024-01-16T04:26:11;4.40;;;3.05;;
840;SDS011;406;48.566;13.450;2024-01-16T04:28:37;3.42;;;2.78;;
840;SDS011;406;48.566;13.450;2024-01-16T04:31:04;2.80;;;2.60;;
840;SDS011;406;48.566;13.450;2024-01-16T04:33:31;7.20;;;3.17;;
840;SDS011;406;48.566;13.450;2024-01-16T04:35:58;3.22;;;2.58;;
840;SDS011;406;48.566;13.450;2024-01-16T04:38:24;3.38;;;2.90;;
840;SDS011;406;48.566;13.450;2024-01-16T04:40:51;3.67;;;2.60;;
840;SDS011;406;48.566;13.450;2024-01-16T04:43:17;3.38;;;2.75;;
840;SDS011;406;48.566;13.450;2024-01-16T04:45:44;2.80;;;2.28;;
840;SDS011;406;48.566;13.450;2024-01-16T04:48:10;3.03;;;2.47;;
840;SDS011;406;48.566;13.450;2024-01-16T04:50:37;5.10;;;3.55;;
840;SDS011;406;48.566;13.450;2024-01-16T04:53:04;4.03;;;3.10;;
840;SDS011;406;48.566;13.450;2024-01-16T04:55:31;5.47;;;3.17;;
840;SDS011;406;48.566;13.450;2024-01-16T04:57:57;13.07;;;3.60;;
840;SDS011;406;48.566;13.450;2024-01-16T05:00:26;5.22;;;2.88;;
840;SDS011;406;48.566;13.450;2024-01-16T05:02:52;4.60;;;3.20;;
840;SDS011;406;48.566;13.450;2024-01-16T05:05:19;3.55;;;2.47;;
840;SDS011;406;48.566;13.450;2024-01-16T05:07:46;3.65;;;3.05;;
840;SDS011;406;48.566;13.450;2024-01-16T05:10:12;3.90;;;2.78;;
840;SDS011;406;48.566;13.450;2024-01-16T05:12:42;3.53;;;2.75;;
840;SDS011;406;48.566;13.450;2024-01-16T05:15:09;3.65;;;2.40;;
840;SDS011;406;48.566;13.450;2024-01-16T05:17:37;4.55;;;3.45;;
840;SDS011;406;48.566;13.450;2024-01-16T05:20:04;3.90;;;3.00;;
840;SDS011;406;48.566;13.450;2024-01-16T05:22:31;5.28;;;2.72;;
840;SDS011;406;48.566;13.450;2024-01-16T05:24:59;4.50;;;3.20;;
840;SDS011;406;48.566;13.450;2024-01-16T05:27:25;6.00;;;2.53;;
840;SDS011;406;48.566;13.450;2024-01-16T05:29:52;6.28;;;3.70;;
840;SDS011;406;48.566;13.450;2024-01-16T05:32:19;3.45;;;2.80;;
840;SDS011;406;48.566;13.450;2024-01-16T05:34:45;4.22;;;3.35;;
840;SDS011;406;48.566;13.450;2024-01-16T05:37:12;4.30;;;2.95;;
840;SDS011;406;48.566;13.450;2024-01-16T05:39:38;6.03;;;2.83;;
840;SDS011;406;48.566;13.450;2024-01-16T05:42:05;3.13;;;2.65;;
840;SDS011;406;48.566;13.450;2024-01-16T05:44:32;4.55;;;2.90;;
840;SDS011;406;48.566;13.450;2024-01-16T05:46:59;4.65;;;2.40;;
840;SDS011;406;48.566;13.450;2024-01-16T05:49:26;4.03;;;2.70;;
840;SDS011;406;48.566;13.450;2024-01-16T05:51:52;2.85;;;2.60;;
840;SDS011;406;48.566;13.450;2024-01-16T05:54:19;3.95;;;3.08;;
840;SDS011;406;48.566;13.450;2024-01-16T05:56:45;3.80;;;2.88;;
840;SDS011;406;48.566;13.450;2024-01-16T05:59:12;3.30;;;2.65;;
840;SDS011;406;48.566;13.450;2024-01-16T06:01:38;3.30;;;2.50;;
840;SDS011;406;48.566;13.450;2024-01-16T06:04:05;4.55;;;2.78;;
840;SDS011;406;48.566;13.450;2024-01-16T06:06:32;3.40;;;2.30;;
840;SDS011;406;48.566;13.450;2024-01-16T06:08:59;3.55;;;3.25;;
840;SDS011;406;48.566;13.450;2024-01-16T06:11:31;4.63;;;3.20;;
840;SDS011;406;48.566;13.450;2024-01-16T06:13:58;3.42;;;2.78;;
840;SDS011;406;48.566;13.450;2024-01-16T06:16:25;5.47;;;2.70;;
840;SDS011;406;48.566;13.450;2024-01-16T06:18:52;3.70;;;3.00;;
840;SDS011;406;48.566;13.450;2024-01-16T06:21:19;4.72;;;3.22;;
840;SDS011;406;48.566;13.450;2024-01-16T06:23:49;4.07;;;2.90;;
840;SDS011;406;48.566;13.450;2024-01-16T06:26:16;4.80;;;2.75;;
840;SDS011;406;48.566;13.450;2024-01-16T06:28:43;3.40;;;2.80;;
840;SDS011;406;48.566;13.450;2024-01-16T06:31:10;5.85;;;3.13;;
840;SDS011;406;48.566;13.450;2024-01-16T06:33:38;5.85;;;3.80;;
840;SDS011;406;48.566;13.450;2024-01-16T06:36:04;3.10;;;2.60;;
840;SDS011;406;48.566;13.450;2024-01-16T06:38:31;5.05;;;3.05;;
840;SDS011;406;48.566;13.450;2024-01-16T06:40:58;5.22;;;3.40;;
840;SDS011;406;48.566;13.450;2024-01-16T06:43:25;5.45;;;2.42;;
840;SDS011;406;48.566;13.450;2024-01-16T06:45:51;6.47;;;3.50;;
840;SDS011;406;48.566;13.450;2024-01-16T06:48:18;4.68;;;2.75;;
840;SDS011;406;48.566;13.450;2024-01-16T06:50:45;6.18;;;3.00;;
840;SDS011;406;48.566;13.450;2024-01-16T06:53:11;4.63;;;3.10;;
840;SDS011;406;48.566;13.450;2024-01-16T06:55:42;6.68;;;3.42;;
840;SDS011;406;48.566;13.450;2024-01-16T06:58:08;4.78;;;3.20;;
840;SDS011;406;48.566;13.450;2024-01-16T07:00:36;6.65;;;3.20;;
840;SDS011;406;48.566;13.450;2024-01-16T07:03:03;4.55;;;3.40;;
840;SDS011;406;48.566;13.450;2024-01-16T07:05:29;4.93;;;3.47;;
840;SDS011;406;48.566;13.450;2024-01-16T07:07:56;5.18;;;3.17;;
840;SDS011;406;48.566;13.450;2024-01-16T07:10:24;5.55;;;3.45;;
840;SDS011;406;48.566;13.450;2024-01-16T07:12:51;4.43;;;3.30;;
840;SDS011;406;48.566;13.450;2024-01-16T07:15:18;4.32;;;2.95;;
840;SDS011;406;48.566;13.450;2024-01-16T07:17:44;6.80;;;3.90;;
840;SDS011;406;48.566;13.450;2024-01-16T07:20:11;5.13;;;3.20;;
840;SDS011;406;48.566;13.450;2024-01-16T07:22:38;3.88;;;2.97;;
840;SDS011;406;48.566;13.450;2024-01-16T07:25:07;5.13;;;3.20;;
840;SDS011;406;48.566;13.450;2024-01-16T07:27:34;3.65;;;2.75;;
840;SDS011;406;48.566;13.450;2024-01-16T07:30:01;4.50;;;3.05;;
840;SDS011;406;48.566;13.450;2024-01-16T07:32:30;5.32;;;2.92;;
840;SDS011;406;48.566;13.450;2024-01-16T07:34:58;4.25;;;2.95;;
840;SDS011;406;48.566;13.450;2024-01-16T07:37:24;4.78;;;2.95;;
840;SDS011;406;48.566;13.450;2024-01-16T07:39:51;6.07;;;3.65;;
840;SDS011;406;48.566;13.450;2024-01-16T07:42:17;5.10;;;2.85;;
840;SDS011;406;48.566;13.450;2024-01-16T07:44:44;4.78;;;2.90;;
840;SDS011;406;48.566;13.450;2024-01-16T07:47:10;4.32;;;3.00;;
840;SDS011;406;48.566;13.450;2024-01-16T07:49:37;4.07;;;2.80;;
840;SDS011;406;48.566;13.450;2024-01-16T07:52:04;4.13;;;3.08;;
840;SDS011;406;48.566;13.450;2024-01-16T07:54:30;3.55;;;2.97;;
840;SDS011;406;48.566;13.450;2024-01-16T07:56:57;4.50;;;3.33;;
840;SDS011;406;48.566;13.450;2024-01-16T07:59:24;4.50;;;2.70;;
840;SDS011;406;48.566;13.450;2024-01-16T08:01:50;3.03;;;2.72;;
840;SDS011;406;48.566;13.450;2024-01-16T08:04:17;2.90;;;2.65;;
840;SDS011;406;48.566;13.450;2024-01-16T08:06:44;5.15;;;2.63;;
840;SDS011;406;48.566;13.450;2024-01-16T08:09:11;4.53;;;3.63;;
840;SDS011;406;48.566;13.450;2024-01-16T08:11:39;4.28;;;3.33;;
840;SDS011;406;48.566;13.450;2024-01-16T08:14:06;5.18;;;3.70;;
840;SDS011;406;48.566;13.450;2024-01-16T08:16:32;2.72;;;2.30;;
840;SDS011;406;48.566;13.450;2024-01-16T08:18:59;4.32;;;3.20;;
840;SDS011;406;48.566;13.450;2024-01-16T08:21:26;6.25;;;3.88;;
840;SDS011;406;48.566;13.450;2024-01-16T08:23:52;6.25;;;3.80;;
840;SDS011;406;48.566;13.450;2024-01-16T08:26:19;3.67;;;2.70;;
840;SDS011;406;48.566;13.450;2024-01-16T08:28:46;4.13;;;3.30;;
840;SDS011;406;48.566;13.450;2024-01-16T08:31:12;4.03;;;3.58;;
840;SDS011;406;48.566;13.450;2024-01-16T08:33:39;4.63;;;3.28;;
840;SDS011;406;48.566;13.450;2024-01-16T08:36:12;4.90;;;3.55;;
840;SDS011;406;48.566;13.450;2024-01-16T08:38:40;3.75;;;3.17;;
840;SDS011;406;48.566;13.450;2024-01-16T08:41:07;4.50;;;3.30;;
840;SDS011;406;48.566;13.450;2024-01-16T08:43:34;4.38;;;3.20;;
840;SDS011;406;48.566;13.450;2024-01-16T08:46:01;4.80;;;3.13;;
840;SDS011;406;48.566;13.450;2024-01-16T08:48:27;4.57;;;3.45;;
840;SDS011;406;48.566;13.450;2024-01-16T08:50:54;2.97;;;2.65;;
840;SDS011;406;48.566;13.450;2024-01-16T08:53:21;4.50;;;3.45;;
840;SDS011;406;48.566;13.450;2024-01-16T08:55:50;6.78;;;4.00;;
840;SDS011;406;48.566;13.450;2024-01-16T08:58:16;5.18;;;3.38;;
840;SDS011;406;48.566;13.450;2024-01-16T09:00:43;5.00;;;3.70;;
840;SDS011;406;48.566;13.450;2024-01-16T09:03:09;7.95;;;4.10;;
840;SDS011;406;48.566;13.450;2024-01-16T09:05:37;3.20;;;2.80;;
840;SDS011;406;48.566;13.450;2024-01-16T09:08:05;4.10;;;2.90;;
840;SDS011;406;48.566;13.450;2024-01-16T09:10:37;3.65;;;2.83;;
840;SDS011;406;48.566;13.450;2024-01-16T09:13:03;6.15;;;3.35;;
840;SDS011;406;48.566;13.450;2024-01-16T09:15:30;3.40;;;2.67;;
840;SDS011;406;48.566;13.450;2024-01-16T09:17:56;6.82;;;2.60;;
840;SDS011;406;48.566;13.450;2024-01-16T09:20:23;3.88;;;2.97;;
840;SDS011;406;48.566;13.450;2024-01-16T09:22:50;4.70;;;3.25;;
840;SDS011;406;48.566;13.450;2024-01-16T09:25:16;4.10;;;3.60;;
840;SDS011;406;48.566;13.450;2024-01-16T09:27:43;4.60;;;2.88;;
840;SDS011;406;48.566;13.450;2024-01-16T09:30:10;3.58;;;2.50;;
840;SDS011;406;48.566;13.450;2024-01-16T09:32:38;5.50;;;3.20;;
840;SDS011;406;48.566;13.450;2024-01-16T09:35:05;7.33;;;3.93;;
840;SDS011;406;48.566;13.450;2024-01-16T09:37:35;5.38;;;2.92;;
840;SDS011;406;48.566;13.450;2024-01-16T09:40:02;6.18;;;3.20;;
840;SDS011;406;48.566;13.450;2024-01-16T09:42:31;3.88;;;3.33;;
840;SDS011;406;48.566;13.450;2024-01-16T09:44:58;5.07;;;3.75;;
840;SDS011;406;48.566;13.450;2024-01-16T09:47:27;3.33;;;2.65;;
840;SDS011;406;48.566;13.450;2024-01-16T09:49:57;4.65;;;3.65;;
840;SDS011;406;48.566;13.450;2024-01-16T09:52:23;4.07;;;3.50;;
840;SDS011;406;48.566;13.450;2024-01-16T09:54:50;4.90;;;3.77;;
840;SDS011;406;48.566;13.450;2024-01-16T09:57:18;5.70;;;3.75;;
840;SDS011;406;48.566;13.450;2024-01-16T09:59:45;5.78;;;3.08;;
840;SDS011;406;48.566;13.450;2024-01-16T10:02:11;4.55;;;3.38;;
840;SDS011;406;48.566;13.450;2024-01-16T10:04:39;6.55;;;2.83;;
840;SDS011;406;48.566;13.450;2024-01-16T10:07:06;3.10;;;2.55;;
840;SDS011;406;48.566;13.450;2024-01-16T10:09:34;3.90;;;2.90;;
840;SDS011;406;48.566;13.450;2024-01-16T10:12:01;5.78;;;3.25;;
840;SDS011;406;48.566;13.450;2024-01-16T10:14:28;3.08;;;2.35;;
840;SDS011;406;48.566;13.450;2024-01-16T10:16:59;7.00;;;3.78;;
840;SDS011;406;48.566;13.450;2024-01-16T10:19:31;4.47;;;3.20;;
840;SDS011;406;48.566;13.450;2024-01-16T10:22:11;4.60;;;3.53;;
840;SDS011;406;48.566;13.450;2024-01-16T10:24:38;10.15;;;3.33;;
840;SDS011;406;48.566;13.450;2024-01-16T10:27:05;6.95;;;4.38;;
840;SDS011;406;48.566;13.450;2024-01-16T10:29:32;3.97;;;2.85;;
840;SDS011;406;48.566;13.450;2024-01-16T10:32:16;6.97;;;2.92;;
840;SDS011;406;48.566;13.450;2024-01-16T10:35:00;8.52;;;3.75;;
840;SDS011;406;48.566;13.450;2024-01-16T10:37:28;6.50;;;2.90;;
840;SDS011;406;48.566;13.450;2024-01-16T10:39:54;4.40;;;2.85;;
840;SDS011;406;48.566;13.450;2024-01-16T10:42:21;3.97;;;2.78;;
840;SDS011;406;48.566;13.450;2024-01-16T10:44:53;3.20;;;2.63;;
840;SDS011;406;48.566;13.450;2024-01-16T10:47:21;4.00;;;3.07;;
840;SDS011;406;48.566;13.450;2024-01-16T10:49:48;3.58;;;2.85;;
840;SDS011;406;48.566;13.450;2024-01-16T10:52:15;4.40;;;3.03;;
840;SDS011;406;48.566;13.450;2024-01-16T10:54:46;6.23;;;3.27;;
840;SDS011;406;48.566;13.450;2024-01-16T10:57:13;4.90;;;3.00;;
840;SDS011;406;48.566;13.450;2024-01-16T10:59:40;5.78;;;3.15;;
840;SDS011;406;48.566;13.450;2024-01-16T11:02:13;3.50;;;3.00;;
840;SDS011;406;48.566;13.450;2024-01-16T11:04:42;5.50;;;2.65;;
840;SDS011;406;48.566;13.450;2024-01-16T11:07:09;3.80;;;3.33;;
840;SDS011;406;48.566;13.450;2024-01-16T11:09:36;5.90;;;3.80;;
840;SDS011;406;48.566;13.450;2024-01-16T11:12:03;5.53;;;3.42;;
840;SDS011;406;48.566;13.450;2024-01-16T11:14:29;4.37;;;3.17;;
840;SDS011;406;48.566;13.450;2024-01-16T11:16:57;3.90;;;2.70;;
840;SDS011;406;48.566;13.450;2024-01-16T11:19:24;4.33;;;2.87;;
840;SDS011;406;48.566;13.450;2024-01-16T11:22:11;4.32;;;3.45;;
840;SDS011;406;48.566;13.450;2024-01-16T11:24:38;4.20;;;3.10;;
840;SDS011;406;48.566;13.450;2024-01-16T11:27:04;5.00;;;3.70;;
840;SDS011;406;48.566;13.450;2024-01-16T11:31:58;4.90;;;3.17;;
840;SDS011;406;48.566;13.450;2024-01-16T11:37:24;4.70;;;3.50;;
840;SDS011;406;48.566;13.450;2024-01-16T11:40:20;3.43;;;2.97;;
840;SDS011;406;48.566;13.450;2024-01-16T11:42:47;5.83;;;4.00;;
840;SDS011;406;48.566;13.450;2024-01-16T11:48:09;5.20;;;2.75;;
840;SDS011;406;48.566;13.450;2024-01-16T11:50:37;5.13;;;3.70;;
840;SDS011;406;48.566;13.450;2024-01-16T11:53:04;4.13;;;3.50;;
840;SDS011;406;48.566;13.450;2024-01-16T11:55:31;3.73;;;3.10;;
840;SDS011;406;48.566;13.450;2024-01-16T12:00:52;6.73;;;2.60;;
840;SDS011;406;48.566;13.450;2024-01-16T12:03:20;3.70;;;3.13;;
840;SDS011;406;48.566;13.450;2024-01-16T12:06:00;5.07;;;2.93;;
840;SDS011;406;48.566;13.450;2024-01-16T12:08:29;8.00;;;3.67;;
840;SDS011;406;48.566;13.450;2024-01-16T12:10:56;6.13;;;3.50;;
840;SDS011;406;48.566;13.450;2024-01-16T12:13:23;4.40;;;3.10;;
840;SDS011;406;48.566;13.450;2024-01-16T12:15:59;3.93;;;3.53;;
840;SDS011;406;48.566;13.450;2024-01-16T12:18:31;5.20;;;3.50;;
840;SDS011;406;48.566;13.450;2024-01-16T12:21:12;2.63;;;2.30;;
840;SDS011;406;48.566;13.450;2024-01-16T12:23:40;5.63;;;3.97;;
840;SDS011;406;48.566;13.450;2024-01-16T12:26:21;3.60;;;2.83;;
840;SDS011;406;48.566;13.450;2024-01-16T12:28:52;3.80;;;3.23;;
840;SDS011;406;48.566;13.450;2024-01-16T12:31:25;5.47;;;3.20;;
840;SDS011;406;48.566;13.450;2024-01-16T12:33:53;6.57;;;3.80;;
840;SDS011;406;48.566;13.450;2024-01-16T12:36:29;5.03;;;3.30;;
840;SDS011;406;48.566;13.450;2024-01-16T12:38:56;3.90;;;3.10;;
840;SDS011;406;48.566;13.450;2024-01-16T12:41:23;3.97;;;3.33;;
840;SDS011;406;48.566;13.450;2024-01-16T12:44:04;4.85;;;3.50;;
840;SDS011;406;48.566;13.450;2024-01-16T12:46:41;5.17;;;3.43;;
840;SDS011;406;48.566;13.450;2024-01-16T12:49:07;4.67;;;3.47;;
840;SDS011;406;48.566;13.450;2024-01-16T12:51:38;4.07;;;3.20;;
840;SDS011;406;48.566;13.450;2024-01-16T12:54:14;6.00;;;3.73;;
840;SDS011;406;48.566;13.450;2024-01-16T12:56:44;6.93;;;4.23;;
840;SDS011;406;48.566;13.450;2024-01-16T12:59:11;5.13;;;3.60;;
840;SDS011;406;48.566;13.450;2024-01-16T13:01:39;4.10;;;3.23;;
840;SDS011;406;48.566;13.450;2024-01-16T13:04:08;3.85;;;2.95;;
840;SDS011;406;48.566;13.450;2024-01-16T13:06:34;3.77;;;3.37;;
840;SDS011;406;48.566;13.450;2024-01-16T13:09:06;9.57;;;3.27;;
840;SDS011;406;48.566;13.450;2024-01-16T13:11:51;3.97;;;2.80;;
840;SDS011;406;48.566;13.450;2024-01-16T13:14:19;6.03;;;3.90;;
840;SDS011;406;48.566;13.450;2024-01-16T13:16:49;5.43;;;3.13;;
840;SDS011;406;48.566;13.450;2024-01-16T13:19:17;4.00;;;3.33;;
840;SDS011;406;48.566;13.450;2024-01-16T13:21:44;4.70;;;3.10;;
840;SDS011;406;48.566;13.450;2024-01-16T13:24:11;5.23;;;3.37;;
840;SDS011;406;48.566;13.450;2024-01-16T13:26:39;6.23;;;3.50;;
840;SDS011;406;48.566;13.450;2024-01-16T13:29:06;6.57;;;4.57;;
840;SDS011;406;48.566;13.450;2024-01-16T13:31:32;5.87;;;4.50;;
840;SDS011;406;48.566;13.450;2024-01-16T13:33:59;5.40;;;3.20;;
840;SDS011;406;48.566;13.450;2024-01-16T13:36:26;8.83;;;4.00;;
840;SDS011;406;48.566;13.450;2024-01-16T13:39:12;6.10;;;4.10;;
840;SDS011;406;48.566;13.450;2024-01-16T13:41:42;6.17;;;3.70;;
840;SDS011;406;48.566;13.450;2024-01-16T13:44:09;4.53;;;3.50;;
840;SDS011;406;48.566;13.450;2024-01-16T13:46:35;5.00;;;3.87;;
840;SDS011;406;48.566;13.450;2024-01-16T13:49:22;5.47;;;4.03;;
840;SDS011;406;48.566;13.450;2024-01-16T13:51:49;6.53;;;4.00;;
840;SDS011;406;48.566;13.450;2024-01-16T13:54:15;7.37;;;3.77;;
840;SDS011;406;48.566;13.450;2024-01-16T13:56:42;11.10;;;4.17;;
840;SDS011;406;48.566;13.450;2024-01-16T13:59:30;4.83;;;3.70;;
840;SDS011;406;48.566;13.450;2024-01-16T14:01:56;5.83;;;4.07;;
840;SDS011;406;48.566;13.450;2024-01-16T14:04:23;5.93;;;3.67;;
840;SDS011;406;48.566;13.450;2024-01-16T14:06:50;7.00;;;3.80;;
840;SDS011;406;48.566;13.450;2024-01-16T14:09:36;6.13;;;3.90;;
840;SDS011;406;48.566;13.450;2024-01-16T14:12:03;7.03;;;4.33;;
840;SDS011;406;48.566;13.450;2024-01-16T14:14:30;4.33;;;3.93;;
840;SDS011;406;48.566;13.450;2024-01-16T14:16:57;8.10;;;4.37;;
840;SDS011;406;48.566;13.450;2024-01-16T14:19:27;5.30;;;4.47;;
840;SDS011;406;48.566;13.450;2024-01-16T14:21:56;4.47;;;3.33;;
840;SDS011;406;48.566;13.450;2024-01-16T14:24:23;7.70;;;4.73;;
840;SDS011;406;48.566;13.450;2024-01-16T14:26:49;4.73;;;4.20;;
840;SDS011;406;48.566;13.450;2024-01-16T14:29:16;5.27;;;3.97;;
840;SDS011;406;48.566;13.450;2024-01-16T14:31:43;4.97;;;4.27;;
840;SDS011;406;48.566;13.450;2024-01-16T14:34:10;6.53;;;3.97;;
840;SDS011;406;48.566;13.450;2024-01-16T14:36:39;6.43;;;4.30;;
840;SDS011;406;48.566;13.450;2024-01-16T14:39:07;5.97;;;4.00;;
840;SDS011;406;48.566;13.450;2024-01-16T14:41:39;6.33;;;4.00;;
840;SDS011;406;48.566;13.450;2024-01-16T14:44:08;6.30;;;4.47;;
840;SDS011;406;48.566;13.450;2024-01-16T14:46:35;6.47;;;4.70;;
840;SDS011;406;48.566;13.450;2024-01-16T14:49:02;5.28;;;4.65;;
840;SDS011;406;48.566;13.450;2024-01-16T14:51:29;6.40;;;4.45;;
840;SDS011;406;48.566;13.450;2024-01-16T14:53:56;5.95;;;4.53;;
840;SDS011;406;48.566;13.450;2024-01-16T14:56:22;6.82;;;4.63;;
840;SDS011;406;48.566;13.450;2024-01-16T14:58:49;4.97;;;3.63;;
840;SDS011;406;48.566;13.450;2024-01-16T15:01:17;5.27;;;4.70;;
840;SDS011;406;48.566;13.450;2024-01-16T15:03:44;6.57;;;5.18;;
840;SDS011;406;48.566;13.450;2024-01-16T15:06:10;7.27;;;3.83;;
840;SDS011;406;48.566;13.450;2024-01-16T15:08:39;4.80;;;4.27;;
840;SDS011;406;48.566;13.450;2024-01-16T15:11:06;5.90;;;4.47;;
840;SDS011;406;48.566;13.450;2024-01-16T15:13:33;6.17;;;4.70;;
840;SDS011;406;48.566;13.450;2024-01-16T15:16:00;9.57;;;4.20;;
840;SDS011;406;48.566;13.450;2024-01-16T15:18:26;5.10;;;3.88;;
840;SDS011;406;48.566;13.450;2024-01-16T15:20:54;6.80;;;4.55;;
840;SDS011;406;48.566;13.450;2024-01-16T15:23:21;7.30;;;4.95;;
840;SDS011;406;48.566;13.450;2024-01-16T15:25:49;7.13;;;4.50;;
840;SDS011;406;48.566;13.450;2024-01-16T15:28:16;7.50;;;4.53;;
840;SDS011;406;48.566;13.450;2024-01-16T15:30:42;6.25;;;5.35;;
840;SDS011;406;48.566;13.450;2024-01-16T15:33:11;5.10;;;4.60;;
840;SDS011;406;48.566;13.450;2024-01-16T15:35:38;5.30;;;3.85;;
840;SDS011;406;48.566;13.450;2024-01-16T15:38:04;4.73;;;3.40;;
840;SDS011;406;48.566;13.450;2024-01-16T15:40:31;5.30;;;4.50;;
840;SDS011;406;48.566;13.450;2024-01-16T15:42:57;6.65;;;4.43;;
840;SDS011;406;48.566;13.450;2024-01-16T15:45:25;8.02;;;5.30;;
840;SDS011;406;48.566;13.450;2024-01-16T15:47:53;5.10;;;4.07;;